Terminal Aerodrome Forecast
Issued by NWS Denver/Boulder, CO

Home | Current Version | Previous Version | Text Only | Print | Product List | Glossary On
Versions: 1 2 3 4 5 6 7 8 9 10 11 12 13 14 15 16 17 18 19 20 21 22 23 24 25 26 27 28 29 30 31 32 33 34 35 36 37 38 39 40 41 42 43 44 45 46 47 48 49 50
000
FTUS45 KBOU 220527
TAFDEN
TAF
KDEN 220527Z 2206/2312 31010KT P6SM VCSH SCT080 OVC140
      TEMPO 2206/2208 30015G25KT -SHRA BKN080
     FM220800 24007KT P6SM VCSH SCT080 BKN150
     FM221000 21009KT P6SM SCT120 BKN200
     FM221500 VRB06KT P6SM SCT080 BKN150
     FM221900 10007KT P6SM VCSH SCT060 BKN140
     FM230000 13006KT P6SM SCT080 BKN200
     FM230300 20007KT P6SM SCT100 BKN200=

USA.gov is the U.S. government's official web portal to all federal, state and local government web resources and services.